SARF/FMA METAR and TAF weather

Enter ICAO airport designator
Station Type Date Time Source
SARF METAR 2021/09/24 03:00 UTC NOAA

SARF 240300Z 18005KT CAVOK 17/15 Q1018


Station Type Date Time Source
SARF Decoded METAR 2021/09/24 03:00 UTC NOAA

Formosa Aerodrome, Argentina (SARF) 26-12S 058-14W 60M
Sep 23, 2021 - 11:00 PM EDT / 2021.09.24 0300 UTC
Wind: from the S (180 degrees) at 6 MPH (5 KT):0
Visibility: greater than 7 mile(s):0
Temperature: 62 F (17 C)
Dew Point: 59 F (15 C)
Relative Humidity: 88%
Pressure (altimeter): 30.06 in. Hg (1018 hPa)
ob: SARF 240300Z 18005KT CAVOK 17/15 Q1018
cycle: 3

Station Type Date Time Source
SARF TAF 2021/09/24 00:00 UTC NOAA

TAF COR SARF 232300Z 2400/2424 20005KT CAVOK TX25/2419Z TN12/2410Z

Example: see airport list